createdAt,value
2023-02-14T00:00:43.323Z,99677.00
2023-02-14T00:02:44.678Z,99671.84
2023-02-14T00:04:48.245Z,99679.59
2023-02-14T00:06:49.606Z,99671.97
2023-02-14T00:08:53.991Z,99676.16
2023-02-14T00:10:55.292Z,99666.78
2023-02-14T00:12:56.619Z,99669.34
2023-02-14T00:15:16.442Z,99663.34
2023-02-14T00:17:17.788Z,99665.03
2023-02-14T00:19:19.069Z,99656.41
2023-02-14T00:21:20.373Z,99656.38
2023-02-14T00:23:21.675Z,99659.91
2023-02-14T00:25:22.958Z,99669.31
2023-02-14T00:27:24.275Z,99660.78
2023-02-14T00:29:25.569Z,99659.09
2023-02-14T00:31:27.008Z,99656.50
2023-02-14T00:33:28.437Z,99660.78
2023-02-14T00:35:29.731Z,99662.50
2023-02-14T00:37:31.028Z,99665.06
2023-02-14T00:39:32.385Z,99674.53
2023-02-14T00:41:33.713Z,99664.28
2023-02-14T00:43:35.013Z,99669.38
2023-02-14T00:45:36.379Z,99664.19
2023-02-14T00:47:37.780Z,99668.47
2023-02-14T00:49:39.117Z,99677.00
2023-02-14T00:51:40.459Z,99666.66
2023-02-14T00:53:41.811Z,99665.75
2023-02-14T00:55:43.112Z,99669.28
2023-02-14T00:57:45.005Z,99676.13
2023-02-14T00:59:46.337Z,99664.19
2023-02-14T01:01:47.687Z,99669.28
2023-02-14T01:03:49.061Z,99664.16
2023-02-14T01:05:50.407Z,99663.25
2023-02-14T01:07:51.715Z,99662.44
2023-02-14T01:09:53.034Z,99661.56
2023-02-14T01:11:54.388Z,99664.13
2023-02-14T01:13:55.698Z,99662.44
2023-02-14T01:15:57.023Z,99660.00
2023-02-14T01:17:58.358Z,99661.69
2023-02-14T01:19:59.655Z,99663.41
2023-02-14T01:22:00.984Z,99654.88
2023-02-14T01:24:02.324Z,99653.13
2023-02-14T01:26:03.626Z,99646.28
2023-02-14T01:28:04.971Z,99650.31
2023-02-14T01:30:06.310Z,99659.50
2023-02-14T01:32:07.719Z,99649.38
2023-02-14T01:34:09.258Z,99650.63
2023-02-14T01:36:10.606Z,99645.19
2023-02-14T01:38:11.946Z,99650.50
2023-02-14T01:40:13.244Z,99638.63
2023-02-14T01:42:14.592Z,99641.22
2023-02-14T01:44:15.898Z,99637.81
2023-02-14T01:46:17.315Z,99636.09
2023-02-14T01:48:18.657Z,99627.56
2023-02-14T01:50:20.015Z,99625.91
2023-02-14T01:52:21.321Z,99626.75
2023-02-14T01:54:22.653Z,99624.19
2023-02-14T01:56:23.981Z,99626.75
2023-02-14T01:58:25.282Z,99625.03
2023-02-14T02:00:45.262Z,99623.31
2023-02-14T02:02:46.618Z,99619.09
2023-02-14T02:04:48.019Z,99626.75
2023-02-14T02:06:49.320Z,99621.63
2023-02-14T02:08:50.612Z,99622.47
2023-02-14T02:10:51.921Z,99619.06
2023-02-14T02:12:53.312Z,99626.75
2023-02-14T02:14:54.595Z,99619.09
2023-02-14T02:16:55.958Z,99615.63
2023-02-14T02:18:57.319Z,99623.31
2023-02-14T02:20:58.960Z,99620.75
2023-02-14T02:23:00.557Z,99625.88
2023-02-14T02:25:02.222Z,99624.16
2023-02-14T02:27:03.532Z,99620.78
2023-02-14T02:29:04.825Z,99624.16
2023-02-14T02:31:06.253Z,99625.03
2023-02-14T02:33:07.615Z,99626.72
2023-02-14T02:35:08.910Z,99627.59
2023-02-14T02:37:10.246Z,99623.31
2023-02-14T02:39:11.591Z,99628.41
2023-02-14T02:41:12.880Z,99618.19
2023-02-14T02:43:14.179Z,99622.47
2023-02-14T02:45:15.467Z,99626.72
2023-02-14T02:47:16.795Z,99619.88
2023-02-14T02:49:41.117Z,99622.44
2023-02-14T02:52:00.979Z,99627.56
2023-02-14T02:54:02.273Z,99625.88
2023-02-14T02:56:22.247Z,99627.56
2023-02-14T02:58:23.570Z,99616.47
2023-02-14T03:00:24.941Z,99621.59
2023-02-14T03:02:26.247Z,99619.88
2023-02-14T03:04:46.161Z,99618.22
2023-02-14T03:06:47.522Z,99624.16
2023-02-14T03:08:48.858Z,99625.88
2023-02-14T03:10:50.169Z,99622.47
2023-02-14T03:12:51.479Z,99622.44
2023-02-14T03:14:52.807Z,99624.16
2023-02-14T03:16:54.112Z,99615.63
2023-02-14T03:19:13.981Z,99621.59
2023-02-14T03:21:15.278Z,99608.81
2023-02-14T03:23:16.577Z,99610.53
2023-02-14T03:25:17.914Z,99616.50
2023-02-14T03:27:19.214Z,99612.22
2023-02-14T03:29:21.744Z,99607.09
2023-02-14T03:31:23.227Z,99617.34
2023-02-14T03:33:24.555Z,99613.09
2023-02-14T03:35:25.870Z,99615.63
2023-02-14T03:37:27.283Z,99610.53
2023-02-14T03:39:28.639Z,99607.94
2023-02-14T03:41:30.040Z,99612.22
2023-02-14T03:43:31.407Z,99622.47
2023-02-14T03:45:32.761Z,99614.78
2023-02-14T03:47:34.134Z,99619.91
2023-02-14T03:49:35.477Z,99614.78
2023-02-14T03:51:36.784Z,99623.28
2023-02-14T03:53:38.180Z,99616.50
2023-02-14T03:55:39.684Z,99623.31
2023-02-14T03:57:41.937Z,99619.88
2023-02-14T03:59:43.228Z,99613.06
2023-02-14T04:01:44.628Z,99618.16
2023-02-14T04:03:46.055Z,99617.34
2023-02-14T04:05:52.288Z,99613.94
2023-02-14T04:07:53.718Z,99617.31
2023-02-14T04:09:55.119Z,99613.03
2023-02-14T04:11:56.458Z,99620.75
2023-02-14T04:13:57.747Z,99616.47
2023-02-14T04:15:59.124Z,99620.72
2023-02-14T04:18:35.867Z,99613.06
2023-02-14T04:20:37.304Z,99608.81
2023-02-14T04:22:38.655Z,99614.78
2023-02-14T04:24:40.050Z,99604.53
2023-02-14T04:26:53.977Z,99605.38
2023-02-14T04:28:55.289Z,99602.84
2023-02-14T04:30:56.707Z,99600.28
2023-02-14T04:32:58.159Z,99598.59
2023-02-14T04:34:59.536Z,99597.72
2023-02-14T04:37:00.873Z,99599.44
2023-02-14T04:39:02.173Z,99599.44
2023-02-14T04:41:03.478Z,99589.22
2023-02-14T04:43:04.832Z,99594.31
2023-02-14T04:45:06.140Z,99589.19
2023-02-14T04:47:07.498Z,99588.38
2023-02-14T04:49:08.796Z,99585.81
2023-02-14T04:51:10.119Z,99583.25
2023-02-14T04:53:11.482Z,99597.72
2023-02-14T04:55:12.862Z,99591.78
2023-02-14T04:57:14.155Z,99588.34
2023-02-14T04:59:15.501Z,99581.53
2023-02-14T05:01:16.887Z,99584.09
2023-02-14T05:03:18.228Z,99588.34
2023-02-14T05:05:19.575Z,99585.78
2023-02-14T05:07:20.895Z,99582.38
2023-02-14T05:09:22.190Z,99586.66
2023-02-14T05:11:23.488Z,99589.22
2023-02-14T05:13:24.782Z,99584.09
2023-02-14T05:15:26.162Z,99584.09
2023-02-14T05:17:27.494Z,99583.25
2023-02-14T05:19:28.847Z,99584.94
2023-02-14T05:21:33.066Z,99582.38
2023-02-14T05:23:34.374Z,99588.34
2023-02-14T05:25:35.712Z,99587.50
2023-02-14T05:27:36.998Z,99581.53
2023-02-14T05:29:38.483Z,99592.59
2023-02-14T05:31:39.964Z,99584.94
2023-02-14T05:33:41.341Z,99579.84
2023-02-14T05:35:42.683Z,99582.38
2023-02-14T05:37:44.024Z,99584.06
2023-02-14T05:39:45.324Z,99588.34
2023-02-14T05:41:46.626Z,99588.34
2023-02-14T05:43:47.918Z,99582.38
2023-02-14T05:45:49.251Z,99584.91
2023-02-14T05:47:50.579Z,99584.91
2023-02-14T05:49:51.867Z,99589.19
2023-02-14T05:51:53.170Z,99584.91
2023-02-14T05:53:54.512Z,99584.06
2023-02-14T05:55:55.814Z,99595.16
2023-02-14T05:57:57.161Z,99595.16
2023-02-14T05:59:58.466Z,99593.47
2023-02-14T06:01:59.844Z,99607.09
2023-02-14T06:04:02.279Z,99602.84
2023-02-14T06:06:03.668Z,99602.84
2023-02-14T06:08:05.011Z,99596.88
2023-02-14T06:10:09.857Z,99602.84
2023-02-14T06:12:11.287Z,99598.59
2023-02-14T06:14:12.575Z,99598.59
2023-02-14T06:16:13.905Z,99602.00
2023-02-14T06:18:15.226Z,99601.16
2023-02-14T06:20:16.563Z,99600.31
2023-02-14T06:22:17.863Z,99597.75
2023-02-14T06:24:19.194Z,99608.81
2023-02-14T06:26:20.591Z,99608.81
2023-02-14T06:28:22.839Z,99614.81
2023-02-14T06:30:24.208Z,99611.38
2023-02-14T06:32:25.631Z,99618.19
2023-02-14T06:34:26.934Z,99610.50
2023-02-14T06:36:28.355Z,99615.63
2023-02-14T06:38:29.708Z,99617.34
2023-02-14T06:40:31.014Z,99619.03
2023-02-14T06:42:32.294Z,99623.31
2023-02-14T06:44:33.744Z,99619.06
2023-02-14T06:46:35.090Z,99615.63
2023-02-14T06:48:36.521Z,99613.06
2023-02-14T06:50:37.920Z,99618.19
2023-02-14T06:52:39.332Z,99622.44
2023-02-14T06:54:40.681Z,99616.47
2023-02-14T06:56:42.016Z,99618.22
2023-02-14T06:58:43.324Z,99612.22
2023-02-14T07:00:44.669Z,99614.78
2023-02-14T07:02:46.358Z,99614.78
2023-02-14T07:04:47.749Z,99612.22
2023-02-14T07:06:49.077Z,99621.59
2023-02-14T07:08:50.417Z,99617.34
2023-02-14T07:10:51.717Z,99618.19
2023-02-14T07:12:53.057Z,99612.22
2023-02-14T07:14:54.346Z,99612.22
2023-02-14T07:16:55.632Z,99613.91
2023-02-14T07:18:57.348Z,99614.75
2023-02-14T07:20:59.130Z,99614.78
2023-02-14T07:23:00.597Z,99611.34
2023-02-14T07:25:01.912Z,99619.88
2023-02-14T07:27:03.243Z,99610.50
2023-02-14T07:29:05.065Z,99613.06
2023-02-14T07:31:06.533Z,99611.38
2023-02-14T07:33:08.013Z,99608.81
2023-02-14T07:35:09.385Z,99606.25
2023-02-14T07:37:10.774Z,99610.53
2023-02-14T07:39:12.079Z,99610.50
2023-02-14T07:41:13.412Z,99605.41
2023-02-14T07:43:14.788Z,99604.56
2023-02-14T07:45:21.608Z,99599.44
2023-02-14T07:47:25.076Z,99602.84
2023-02-14T07:49:26.380Z,99614.81
2023-02-14T07:51:27.723Z,99622.50
2023-02-14T07:53:29.085Z,99612.78
2023-02-14T07:55:30.472Z,99618.44
2023-02-14T07:57:31.825Z,99623.94
2023-02-14T07:59:33.212Z,99626.25
2023-02-14T08:01:34.622Z,99625.28
2023-02-14T08:03:35.990Z,99624.38
2023-02-14T08:05:37.329Z,99608.28
2023-02-14T08:07:38.727Z,99621.41
2023-02-14T08:09:40.044Z,99620.66
2023-02-14T08:12:00.063Z,99619.03
2023-02-14T08:14:01.413Z,99620.72
2023-02-14T08:16:05.941Z,99623.28
2023-02-14T08:18:07.492Z,99624.16
2023-02-14T08:20:08.826Z,99616.47
2023-02-14T08:22:10.171Z,99626.69
2023-02-14T08:24:11.489Z,99618.22
2023-02-14T08:26:12.779Z,99617.34
2023-02-14T08:28:14.950Z,99612.22
2023-02-14T08:30:16.387Z,99613.09
2023-02-14T08:32:20.924Z,99616.50
2023-02-14T08:34:22.339Z,99613.94
2023-02-14T08:36:23.714Z,99604.56
2023-02-14T08:38:25.019Z,99613.94
2023-02-14T08:40:26.452Z,99607.94
2023-02-14T08:42:28.014Z,99622.47
2023-02-14T08:44:29.496Z,99621.63
2023-02-14T08:46:31.026Z,99622.47
2023-02-14T08:48:32.590Z,99619.06
2023-02-14T08:50:33.892Z,99627.59
2023-02-14T08:52:35.263Z,99623.31
2023-02-14T08:54:37.217Z,99628.44
2023-02-14T08:56:38.740Z,99627.56
2023-02-14T08:58:40.114Z,99634.34
2023-02-14T09:00:41.529Z,99629.25
2023-02-14T09:02:42.858Z,99641.97
2023-02-14T09:04:44.614Z,99640.28
2023-02-14T09:06:45.966Z,99638.56
2023-02-14T09:08:47.395Z,99636.97
2023-02-14T09:10:48.847Z,99630.16
2023-02-14T09:12:50.244Z,99642.13
2023-02-14T09:14:53.769Z,99639.50
2023-02-14T09:16:55.218Z,99638.66
2023-02-14T09:18:56.847Z,99640.31
2023-02-14T09:20:58.461Z,99645.41
2023-02-14T09:22:59.952Z,99639.50
2023-02-14T09:25:01.280Z,99633.41
2023-02-14T09:27:02.629Z,99635.03
2023-02-14T09:29:03.965Z,99635.13
2023-02-14T09:31:05.276Z,99635.06
2023-02-14T09:33:07.467Z,99633.41
2023-02-14T09:35:08.764Z,99635.72
2023-02-14T09:37:28.817Z,99633.16
2023-02-14T09:39:30.111Z,99642.84
2023-02-14T09:41:31.420Z,99646.34
2023-02-14T09:43:32.716Z,99641.22
2023-02-14T09:45:34.111Z,99635.97
2023-02-14T09:47:35.514Z,99635.78
2023-02-14T09:49:36.880Z,99639.84
2023-02-14T09:51:38.247Z,99637.47
2023-02-14T09:53:39.506Z,99646.28
2023-02-14T09:55:40.839Z,99640.31
2023-02-14T09:57:42.209Z,99645.44
2023-02-14T09:59:44.175Z,99637.78
2023-02-14T10:01:45.463Z,99642.88
2023-02-14T10:03:46.759Z,99648.84
2023-02-14T10:05:48.056Z,99644.56
2023-02-14T10:07:50.438Z,99641.16
2023-02-14T10:09:51.769Z,99638.59
2023-02-14T10:11:53.100Z,99646.25
2023-02-14T10:13:54.407Z,99643.69
2023-02-14T10:15:56.737Z,99645.41
2023-02-14T10:17:58.051Z,99639.41
2023-02-14T10:19:59.346Z,99632.59
2023-02-14T10:22:00.828Z,99635.13
2023-02-14T10:24:02.249Z,99636.75
2023-02-14T10:26:03.789Z,99634.94
2023-02-14T10:28:05.115Z,99630.66
2023-02-14T10:30:06.501Z,99637.69
2023-02-14T10:32:07.938Z,99640.38
2023-02-14T10:34:09.338Z,99638.66
2023-02-14T10:36:10.643Z,99628.31
2023-02-14T10:38:14.323Z,99630.81
2023-02-14T10:40:17.462Z,99625.75
2023-02-14T10:42:18.901Z,99626.66
2023-02-14T10:44:20.201Z,99619.72
2023-02-14T10:46:21.583Z,99625.75
2023-02-14T10:48:23.536Z,99623.19
2023-02-14T10:50:24.889Z,99622.41
2023-02-14T10:52:26.288Z,99622.47
2023-02-14T10:54:28.155Z,99621.63
2023-02-14T10:56:29.497Z,99617.34
2023-02-14T10:58:30.794Z,99626.72
2023-02-14T11:00:32.193Z,99622.44
2023-02-14T11:02:33.613Z,99622.44
2023-02-14T11:04:34.904Z,99624.16
2023-02-14T11:06:36.247Z,99613.91
2023-02-14T11:08:37.544Z,99616.50
2023-02-14T11:10:38.855Z,99617.34
2023-02-14T11:12:40.226Z,99619.91
2023-02-14T11:14:41.535Z,99621.59
2023-02-14T11:16:42.897Z,99611.38
2023-02-14T11:18:44.276Z,99611.34
2023-02-14T11:20:45.578Z,99557.66
2023-02-14T11:22:46.906Z,99613.06
2023-02-14T11:24:48.430Z,99604.53
2023-02-14T11:26:49.795Z,99592.59
2023-02-14T11:28:51.126Z,99601.16
2023-02-14T11:30:52.494Z,99596.03
2023-02-14T11:32:56.313Z,99597.75
2023-02-14T11:34:58.066Z,99600.28
2023-02-14T11:36:59.372Z,99593.44
2023-02-14T11:39:00.709Z,99606.25
2023-02-14T11:41:02.318Z,99603.69
2023-02-14T11:43:14.028Z,99597.75
2023-02-14T11:45:15.802Z,99595.16
2023-02-14T11:47:17.213Z,99590.06
2023-02-14T11:49:18.504Z,99600.28
2023-02-14T11:51:20.324Z,99596.88
2023-02-14T11:53:21.615Z,99594.34
2023-02-14T11:55:22.970Z,99587.50
2023-02-14T11:57:24.331Z,99589.22
2023-02-14T11:59:25.628Z,99585.81
2023-02-14T12:01:26.921Z,99584.09
2023-02-14T12:03:28.258Z,99578.97
2023-02-14T12:05:30.309Z,99582.38
2023-02-14T12:07:31.640Z,99579.84
2023-02-14T12:09:33.115Z,99579.84
2023-02-14T12:11:34.436Z,99577.28
2023-02-14T12:13:36.139Z,99574.72
2023-02-14T12:15:37.856Z,99576.44
2023-02-14T12:17:39.275Z,99572.19
2023-02-14T12:19:40.602Z,99571.31
2023-02-14T12:21:41.955Z,99568.75
2023-02-14T12:23:43.286Z,99579.81
2023-02-14T12:25:44.580Z,99564.47
2023-02-14T12:27:45.900Z,99566.19
2023-02-14T12:29:47.206Z,99564.47
2023-02-14T12:31:48.607Z,99567.88
2023-02-14T12:33:50.682Z,99566.16
2023-02-14T12:35:52.071Z,99561.91
2023-02-14T12:38:03.890Z,99550.78
2023-02-14T12:40:05.859Z,99549.97
2023-02-14T12:42:07.204Z,99545.66
2023-02-14T12:44:08.540Z,99551.69
2023-02-14T12:46:09.919Z,99539.75
2023-02-14T12:48:11.239Z,99543.16
2023-02-14T12:50:14.289Z,99540.63
2023-02-14T12:52:15.600Z,99536.38
2023-02-14T12:54:16.899Z,99544.03
2023-02-14T12:56:18.212Z,99540.63
2023-02-14T12:58:19.599Z,99537.22
2023-02-14T13:00:20.902Z,99532.97
2023-02-14T13:02:22.815Z,99532.97
2023-02-14T13:04:24.674Z,99527.84
2023-02-14T13:06:26.119Z,99530.41
2023-02-14T13:08:27.409Z,99512.50
2023-02-14T13:10:30.130Z,99516.78
2023-02-14T13:12:31.522Z,99509.94
2023-02-14T13:14:32.860Z,99514.22
2023-02-14T13:16:35.235Z,99513.34
2023-02-14T13:18:36.608Z,99515.06
2023-02-14T13:20:38.146Z,99518.47
2023-02-14T13:22:39.458Z,99506.53
2023-02-14T13:24:40.823Z,99513.34
2023-02-14T13:26:42.149Z,99514.22
2023-02-14T13:28:43.439Z,99509.09
2023-02-14T13:30:44.803Z,99509.09
2023-02-14T13:32:46.159Z,99510.78
2023-02-14T13:34:50.434Z,99509.91
2023-02-14T13:36:51.759Z,99523.53
2023-02-14T13:40:59.799Z,99513.28
2023-02-14T13:43:02.272Z,99517.53
2023-02-14T13:45:03.573Z,99514.13
2023-02-14T13:47:04.872Z,99508.19
2023-02-14T13:49:06.415Z,99510.75
2023-02-14T13:51:07.715Z,99510.72
2023-02-14T13:53:09.040Z,99504.75
2023-02-14T13:55:10.388Z,99507.34
2023-02-14T13:57:11.724Z,99506.47
2023-02-14T13:59:13.122Z,99501.38
2023-02-14T14:01:14.448Z,99503.06
2023-02-14T14:03:15.827Z,99492.84
2023-02-14T14:05:17.139Z,99503.94
2023-02-14T14:07:18.443Z,99499.66
2023-02-14T14:09:19.747Z,99494.56
2023-02-14T14:11:21.334Z,99492.03
2023-02-14T14:13:22.687Z,99499.69
2023-02-14T14:15:24.002Z,99488.66
2023-02-14T14:17:26.273Z,99498.88
2023-02-14T14:19:30.452Z,99489.50
2023-02-14T14:21:31.782Z,99481.81
2023-02-14T14:23:33.193Z,99485.25
2023-02-14T14:25:34.701Z,99479.28
2023-02-14T14:27:35.999Z,99475.00
2023-02-14T14:29:38.284Z,99484.38
2023-02-14T14:31:39.744Z,99467.34
2023-02-14T14:33:41.070Z,99472.44
2023-02-14T14:35:45.268Z,99472.47
2023-02-14T14:37:46.576Z,99468.19
2023-02-14T14:39:47.879Z,99477.56
2023-02-14T14:41:49.256Z,99477.56
2023-02-14T14:43:50.586Z,99475.00
2023-02-14T14:45:53.379Z,99474.16
2023-02-14T14:47:54.716Z,99468.19
2023-02-14T14:49:56.858Z,99464.78
2023-02-14T14:51:58.230Z,99463.97
2023-02-14T14:53:59.551Z,99469.91
2023-02-14T14:56:01.270Z,99461.41
2023-02-14T14:58:05.599Z,99459.69
2023-02-14T15:00:09.314Z,99452.88
2023-02-14T15:02:10.661Z,99449.47
2023-02-14T15:04:12.491Z,99455.41
2023-02-14T15:06:13.911Z,99463.94
2023-02-14T15:08:15.300Z,99446.88
2023-02-14T15:10:16.643Z,99448.56
2023-02-14T15:12:36.480Z,99454.56
2023-02-14T15:14:37.817Z,99449.44
2023-02-14T15:16:39.313Z,99451.97
2023-02-14T15:18:40.644Z,99448.59
2023-02-14T15:20:42.032Z,99442.63
2023-02-14T15:22:44.263Z,99442.63
2023-02-14T15:24:45.619Z,99438.38
2023-02-14T15:26:48.030Z,99441.75
2023-02-14T15:28:49.375Z,99442.63
2023-02-14T15:30:50.780Z,99437.53
2023-02-14T15:32:52.208Z,99438.38
2023-02-14T15:34:53.632Z,99434.09
2023-02-14T15:36:57.628Z,99444.34
2023-02-14T15:38:59.310Z,99442.63
2023-02-14T15:41:00.948Z,99452.03
2023-02-14T15:43:02.480Z,99429.88
2023-02-14T15:45:03.823Z,99422.19
2023-02-14T15:47:05.672Z,99426.47
2023-02-14T15:49:07.076Z,99433.28
2023-02-14T15:51:08.419Z,99424.75
2023-02-14T15:53:09.743Z,99419.63
2023-02-14T15:55:11.140Z,99424.75
2023-02-14T15:57:12.432Z,99419.63
2023-02-14T15:59:13.912Z,99423.03
2023-02-14T16:01:15.240Z,99426.44
2023-02-14T16:03:16.955Z,99417.06
2023-02-14T16:05:18.394Z,99423.03
2023-02-14T16:07:19.904Z,99408.56
2023-02-14T16:09:21.201Z,99416.25
2023-02-14T16:11:22.554Z,99415.41
2023-02-14T16:13:24.252Z,99403.47
2023-02-14T16:15:28.518Z,99410.25
2023-02-14T16:17:29.851Z,99404.34
2023-02-14T16:19:31.211Z,99413.72
2023-02-14T16:21:32.559Z,99411.97
2023-02-14T16:23:37.635Z,99417.06
2023-02-14T16:25:38.936Z,99407.72
2023-02-14T16:27:40.232Z,99406.84
2023-02-14T16:29:41.621Z,99412.81
2023-02-14T16:31:51.906Z,99411.97
2023-02-14T16:34:02.403Z,99408.56
2023-02-14T16:36:06.240Z,99416.22
2023-02-14T16:38:07.637Z,99411.97
2023-02-14T16:40:08.980Z,99417.09
2023-02-14T16:42:10.270Z,99418.78
2023-02-14T16:44:11.607Z,99414.53
2023-02-14T16:46:13.480Z,99413.66
2023-02-14T16:48:17.672Z,99407.72
2023-02-14T16:50:20.404Z,99408.56
2023-02-14T16:52:23.393Z,99417.09
2023-02-14T16:54:24.948Z,99409.41
2023-02-14T16:56:26.250Z,99409.41
2023-02-14T16:58:27.607Z,99410.25
2023-02-14T17:00:28.959Z,99411.97
2023-02-14T17:02:30.609Z,99412.81
2023-02-14T17:04:32.040Z,99412.81
2023-02-14T17:06:33.437Z,99416.25
2023-02-14T17:08:34.740Z,99410.28
2023-02-14T17:10:36.103Z,99403.47
2023-02-14T17:12:37.442Z,99409.41
2023-02-14T17:14:38.780Z,99410.28
2023-02-14T17:16:40.080Z,99402.59
2023-02-14T17:18:42.935Z,99404.31
2023-02-14T17:20:44.433Z,99399.19
2023-02-14T17:22:48.394Z,99403.47
2023-02-14T17:24:49.783Z,99404.31
2023-02-14T17:26:51.381Z,99406.00
2023-02-14T17:28:52.767Z,99400.06
2023-02-14T17:30:54.219Z,99397.50
2023-02-14T17:32:55.758Z,99401.75
2023-02-14T17:34:57.210Z,99396.66
2023-02-14T17:36:58.835Z,99399.19
2023-02-14T17:39:00.705Z,99393.25
2023-02-14T17:41:02.428Z,99389.00
2023-02-14T17:43:03.928Z,99385.59
2023-02-14T17:45:08.151Z,99388.09
2023-02-14T17:47:09.555Z,99383.84
2023-02-14T17:49:10.855Z,99374.50
2023-02-14T17:51:12.167Z,99383.00
2023-02-14T17:53:13.463Z,99376.19
2023-02-14T17:55:15.858Z,99377.03
2023-02-14T17:57:17.259Z,99381.31
2023-02-14T17:59:18.620Z,99373.63
2023-02-14T18:01:20.004Z,99379.63
2023-02-14T18:03:21.633Z,99381.31
2023-02-14T18:05:22.947Z,99373.63
2023-02-14T18:07:24.305Z,99377.06
2023-02-14T18:09:25.895Z,99364.28
2023-02-14T18:11:27.665Z,99368.53
2023-02-14T18:13:28.966Z,99354.91
2023-02-14T18:15:30.809Z,99356.63
2023-02-14T18:17:32.223Z,99355.78
2023-02-14T18:19:33.700Z,99358.31
2023-02-14T18:21:36.055Z,99355.75
2023-02-14T18:23:37.506Z,99356.63
2023-02-14T18:25:38.988Z,99352.34
2023-02-14T18:27:40.350Z,99350.66
2023-02-14T18:29:41.664Z,99350.69
2023-02-14T18:31:43.012Z,99367.72
2023-02-14T18:33:44.442Z,99357.47
2023-02-14T18:35:48.571Z,99364.28
2023-02-14T18:37:49.868Z,99355.75
2023-02-14T18:39:51.355Z,99358.34
2023-02-14T18:41:53.005Z,99364.28
2023-02-14T18:43:54.533Z,99362.56
2023-02-14T18:45:55.905Z,99366.84
2023-02-14T18:47:57.975Z,99362.59
2023-02-14T18:49:59.315Z,99365.13
2023-02-14T18:52:00.647Z,99365.16
2023-02-14T18:54:01.942Z,99358.34
2023-02-14T18:56:03.243Z,99361.72
2023-02-14T18:58:06.801Z,99356.63
2023-02-14T19:00:17.963Z,99355.75
2023-02-14T19:02:19.306Z,99352.34
2023-02-14T19:04:21.658Z,99350.63
2023-02-14T19:06:23.392Z,99351.47
2023-02-14T19:08:24.709Z,99350.63
2023-02-14T19:10:26.114Z,99350.63
2023-02-14T19:12:30.164Z,99352.31
2023-02-14T19:14:31.464Z,99350.63
2023-02-14T19:16:33.247Z,99348.06
2023-02-14T19:18:34.685Z,99350.63
2023-02-14T19:20:36.035Z,99348.94
2023-02-14T19:22:37.496Z,99339.56
2023-02-14T19:24:38.795Z,99340.44
2023-02-14T19:26:40.628Z,99331.91
2023-02-14T19:28:42.317Z,99329.38
2023-02-14T19:30:43.822Z,99328.50
2023-02-14T19:32:45.431Z,99325.09
2023-02-14T19:34:46.827Z,99322.53
2023-02-14T19:36:48.224Z,99322.53
2023-02-14T19:38:50.145Z,99330.22
2023-02-14T19:40:52.391Z,99325.13
2023-02-14T19:42:53.712Z,99322.56
2023-02-14T19:44:55.048Z,99319.16
2023-02-14T19:46:56.730Z,99323.41
2023-02-14T19:48:58.119Z,99311.47
2023-02-14T19:51:00.704Z,99314.03
2023-02-14T19:53:02.274Z,99317.47
2023-02-14T19:55:03.924Z,99317.47
2023-02-14T19:57:05.338Z,99314.88
2023-02-14T19:59:09.558Z,99313.19
2023-02-14T20:01:11.028Z,99314.91
2023-02-14T20:03:12.439Z,99311.47
2023-02-14T20:05:13.760Z,99312.34
2023-02-14T20:07:16.749Z,99307.22
2023-02-14T20:09:18.097Z,99300.41
2023-02-14T20:11:19.398Z,99296.13
2023-02-14T20:13:23.723Z,99296.16
2023-02-14T20:15:26.382Z,99295.28
2023-02-14T20:17:27.720Z,99301.22
2023-02-14T20:19:31.729Z,99288.44
2023-02-14T20:21:35.917Z,99293.53
2023-02-14T20:23:37.283Z,99295.22
2023-02-14T20:25:38.593Z,99296.94
2023-02-14T20:27:40.115Z,99299.47
2023-02-14T20:29:46.107Z,99292.69
2023-02-14T20:31:48.195Z,99292.66
2023-02-14T20:33:51.572Z,99293.53
2023-02-14T20:35:52.918Z,99292.69
2023-02-14T20:37:55.041Z,99291.84
2023-02-14T20:39:56.457Z,99284.19
2023-02-14T20:41:57.787Z,99290.16
2023-02-14T20:43:59.085Z,99292.72
2023-02-14T20:46:00.579Z,99285.06
2023-02-14T20:48:04.216Z,99288.47
2023-02-14T20:50:05.533Z,99285.09
2023-02-14T20:52:06.835Z,99277.41
2023-02-14T20:54:08.132Z,99269.75
2023-02-14T20:56:09.436Z,99268.88
2023-02-14T20:58:10.778Z,99272.31
2023-02-14T21:00:12.150Z,99275.72
2023-02-14T21:02:13.565Z,99266.34
2023-02-14T21:04:17.784Z,99267.22
2023-02-14T21:06:19.099Z,99265.53
2023-02-14T21:08:20.399Z,99266.38
2023-02-14T21:10:21.736Z,99266.38
2023-02-14T21:12:23.075Z,99263.84
2023-02-14T21:14:24.382Z,99257.91
2023-02-14T21:16:25.675Z,99263.81
2023-02-14T21:18:27.010Z,99266.38
2023-02-14T21:20:28.348Z,99268.13
2023-02-14T21:22:29.654Z,99257.03
2023-02-14T21:24:30.995Z,99252.75
2023-02-14T21:26:32.317Z,99251.91
2023-02-14T21:28:33.655Z,99257.00
2023-02-14T21:30:38.059Z,99257.00
2023-02-14T21:32:39.375Z,99255.25
2023-02-14T21:34:40.712Z,99247.56
2023-02-14T21:36:42.024Z,99239.91
2023-02-14T21:38:46.062Z,99248.41
2023-02-14T21:40:47.407Z,99246.69
2023-02-14T21:42:48.691Z,99243.28
2023-02-14T21:45:08.987Z,99248.34
2023-02-14T21:47:10.315Z,99239.84
2023-02-14T21:49:30.199Z,99246.66
2023-02-14T21:51:31.617Z,99253.47
2023-02-14T21:53:32.935Z,99247.53
2023-02-14T21:55:34.255Z,99239.00
2023-02-14T21:57:35.586Z,99243.28
2023-02-14T21:59:36.889Z,99241.59
2023-02-14T22:01:38.262Z,99242.47
2023-02-14T22:03:39.611Z,99235.66
2023-02-14T22:05:43.698Z,99245.03
2023-02-14T22:07:45.107Z,99233.13
2023-02-14T22:09:46.430Z,99233.09
2023-02-14T22:11:47.733Z,99231.41
2023-02-14T22:13:49.066Z,99229.72
2023-02-14T22:15:50.429Z,99226.31
2023-02-14T22:17:51.739Z,99225.50
2023-02-14T22:19:53.073Z,99218.66
2023-02-14T22:21:54.411Z,99216.75
2023-02-14T22:23:55.710Z,99219.72
2023-02-14T22:25:57.062Z,99214.41
2023-02-14T22:27:58.408Z,99216.84
2023-02-14T22:29:59.847Z,99218.47
2023-02-14T22:32:02.355Z,99220.84
2023-02-14T22:34:03.739Z,99212.47
2023-02-14T22:36:05.049Z,99209.25
2023-02-14T22:38:07.578Z,99201.66
2023-02-14T22:40:08.876Z,99205.13
2023-02-14T22:42:10.366Z,99207.72
2023-02-14T22:44:11.693Z,99206.88
2023-02-14T22:46:13.064Z,99200.88
2023-02-14T22:48:15.170Z,99208.53
2023-02-14T22:50:16.499Z,99203.44
2023-02-14T22:52:17.836Z,99205.09
2023-02-14T22:54:19.136Z,99197.38
2023-02-14T22:56:20.484Z,99197.47
2023-02-14T22:58:21.843Z,99201.66
2023-02-14T23:00:23.184Z,99186.22
2023-02-14T23:02:24.575Z,99187.06
2023-02-14T23:04:25.930Z,99193.88
2023-02-14T23:06:27.265Z,99191.28
2023-02-14T23:08:28.584Z,99195.56
2023-02-14T23:10:29.924Z,99206.84
2023-02-14T23:12:49.799Z,99196.28
2023-02-14T23:15:09.718Z,99188.50
2023-02-14T23:17:26.105Z,99192.03
2023-02-14T23:19:46.216Z,99192.19
2023-02-14T23:21:56.424Z,99195.16
2023-02-14T23:23:57.735Z,99197.91
2023-02-14T23:25:59.239Z,99198.22
2023-02-14T23:28:00.769Z,99188.22
2023-02-14T23:30:02.855Z,99190.66
2023-02-14T23:32:04.250Z,99176.88
2023-02-14T23:34:05.612Z,99176.81
2023-02-14T23:36:06.949Z,99181.06
2023-02-14T23:38:08.299Z,99175.03
2023-02-14T23:40:10.022Z,99182.66
2023-02-14T23:42:11.503Z,99174.13
2023-02-14T23:44:12.840Z,99176.72
2023-02-14T23:48:15.461Z,99190.47
2023-02-14T23:50:16.826Z,99184.41
2023-02-14T23:52:18.117Z,99179.25
2023-02-14T23:54:19.458Z,99181.94
2023-02-14T23:56:20.844Z,99182.84
2023-02-14T23:58:22.131Z,99176.38
